createdAt,value
2018-07-26T00:01:29.434Z,24.00
2018-07-26T00:03:57.638Z,24.00
2018-07-26T00:06:37.646Z,24.00
2018-07-26T00:09:08.071Z,24.00
2018-07-26T00:11:36.527Z,23.90
2018-07-26T00:14:04.999Z,23.90
2018-07-26T00:16:33.141Z,23.90
2018-07-26T00:19:14.350Z,23.90
2018-07-26T00:21:45.964Z,23.90
2018-07-26T00:24:16.828Z,23.80
2018-07-26T00:26:45.018Z,23.80
2018-07-26T00:29:16.012Z,23.80
2018-07-26T00:32:01.301Z,23.80
2018-07-26T00:34:31.536Z,23.80
2018-07-26T00:36:59.637Z,23.70
2018-07-26T00:39:34.359Z,23.70
2018-07-26T00:42:02.700Z,23.70
2018-07-26T00:44:37.275Z,23.60
2018-07-26T00:47:05.502Z,23.60
2018-07-26T00:49:45.510Z,23.60
2018-07-26T00:52:16.802Z,23.60
2018-07-26T00:54:45.399Z,23.60
2018-07-26T00:57:13.538Z,23.50
2018-07-26T00:59:46.923Z,23.50
2018-07-26T01:05:03.164Z,23.40
2018-07-26T01:07:31.435Z,23.30
2018-07-26T01:09:59.969Z,23.30
2018-07-26T01:12:28.303Z,23.20
2018-07-26T01:15:01.900Z,23.20
2018-07-26T01:17:30.055Z,23.10
2018-07-26T01:20:02.275Z,23.00
2018-07-26T01:22:33.175Z,23.00
2018-07-26T01:25:10.372Z,22.90
2018-07-26T01:27:41.568Z,22.90
2018-07-26T01:30:13.674Z,22.80
2018-07-26T01:32:41.880Z,22.80
2018-07-26T01:35:16.147Z,22.70
2018-07-26T01:37:47.424Z,22.70
2018-07-26T01:40:18.220Z,22.60
2018-07-26T01:42:57.432Z,22.60
2018-07-26T01:45:31.594Z,22.50
2018-07-26T01:47:59.799Z,22.40
2018-07-26T01:50:33.232Z,22.30
2018-07-26T01:53:08.704Z,22.30
2018-07-26T01:55:39.984Z,22.30
2018-07-26T01:58:14.424Z,22.20
2018-07-26T02:03:10.740Z,22.10
2018-07-26T02:05:38.904Z,22.00
2018-07-26T02:08:13.421Z,22.00
2018-07-26T02:10:44.513Z,21.90
2018-07-26T02:13:24.279Z,21.90
2018-07-26T02:18:32.275Z,21.80
2018-07-26T02:21:05.609Z,21.80
2018-07-26T02:23:40.176Z,21.70
2018-07-26T02:26:14.919Z,21.70
2018-07-26T02:28:43.400Z,21.60
2018-07-26T02:31:11.591Z,21.60
2018-07-26T02:33:42.636Z,21.60
2018-07-26T02:36:27.734Z,21.50
2018-07-26T02:38:55.903Z,21.50
2018-07-26T02:41:26.874Z,21.50
2018-07-26T02:43:57.990Z,21.50
2018-07-26T02:46:26.195Z,21.40
2018-07-26T02:49:00.529Z,21.40
2018-07-26T02:51:33.035Z,21.30
2018-07-26T02:54:15.186Z,21.30
2018-07-26T02:56:45.682Z,21.20
2018-07-26T02:59:25.464Z,21.20
2018-07-26T03:02:03.267Z,21.20
2018-07-26T03:04:31.713Z,21.20
2018-07-26T03:06:59.836Z,21.20
2018-07-26T03:09:33.077Z,21.10
2018-07-26T03:12:05.371Z,21.10
2018-07-26T03:14:47.329Z,21.10
2018-07-26T03:17:15.566Z,21.00
2018-07-26T03:19:49.883Z,21.00
2018-07-26T03:22:22.125Z,21.00
2018-07-26T03:24:52.517Z,21.00
2018-07-26T03:27:23.664Z,20.90
2018-07-26T03:29:51.844Z,20.90
2018-07-26T03:32:26.409Z,20.80
2018-07-26T03:35:03.051Z,20.80
2018-07-26T03:37:31.445Z,20.70
2018-07-26T03:40:02.376Z,20.70
2018-07-26T03:42:32.554Z,20.70
2018-07-26T03:45:00.759Z,20.60
2018-07-26T03:47:35.252Z,20.60
2018-07-26T03:50:09.927Z,20.50
2018-07-26T03:52:38.086Z,20.50
2018-07-26T03:55:09.033Z,20.50
2018-07-26T03:57:37.252Z,20.50
2018-07-26T04:00:07.960Z,20.50
2018-07-26T04:02:36.264Z,20.50
2018-07-26T04:05:08.731Z,20.50
2018-07-26T04:07:44.373Z,20.50
2018-07-26T04:10:12.603Z,20.50
2018-07-26T04:12:45.824Z,20.50
2018-07-26T04:15:19.065Z,20.50
2018-07-26T04:18:06.330Z,20.50
2018-07-26T04:20:37.432Z,20.60
2018-07-26T04:23:05.653Z,20.60
2018-07-26T04:25:36.559Z,20.70
2018-07-26T04:28:04.745Z,20.70
2018-07-26T04:30:39.195Z,20.70
2018-07-26T04:33:10.532Z,20.80
2018-07-26T04:35:50.405Z,20.80
2018-07-26T04:38:18.714Z,20.80
2018-07-26T04:40:47.124Z,20.90
2018-07-26T04:45:53.015Z,20.50
2018-07-26T04:48:25.335Z,21.00
2018-07-26T04:50:59.974Z,21.10
2018-07-26T04:53:28.133Z,21.20
2018-07-26T04:56:08.530Z,21.30
2018-07-26T04:58:41.109Z,21.40
2018-07-26T05:01:14.372Z,21.50
2018-07-26T05:03:44.918Z,21.70
2018-07-26T05:06:27.097Z,21.70
2018-07-26T05:08:58.264Z,21.90
2018-07-26T05:11:26.426Z,22.00
2018-07-26T05:14:01.016Z,22.20
2018-07-26T05:16:29.205Z,22.40
2018-07-26T05:19:04.593Z,22.50
2018-07-26T05:21:35.503Z,22.70
2018-07-26T05:24:03.943Z,22.90
2018-07-26T05:26:32.182Z,23.20
2018-07-26T05:29:05.339Z,23.60
2018-07-26T05:31:43.065Z,24.10
2018-07-26T05:34:13.972Z,24.50
2018-07-26T05:36:42.193Z,25.00
2018-07-26T05:39:15.344Z,25.50
2018-07-26T05:41:48.625Z,25.90
2018-07-26T05:44:28.164Z,26.40
2018-07-26T05:47:01.322Z,26.50
2018-07-26T05:49:32.190Z,26.70
2018-07-26T05:52:12.997Z,27.00
2018-07-26T05:54:41.123Z,27.20
2018-07-26T05:57:15.603Z,27.60
2018-07-26T05:59:50.184Z,27.80
2018-07-26T06:02:23.469Z,27.90
2018-07-26T06:05:01.667Z,28.20
2018-07-26T06:10:14.759Z,28.70
2018-07-26T06:12:45.911Z,28.80
2018-07-26T06:15:28.771Z,28.90
2018-07-26T06:17:57.118Z,29.10
2018-07-26T06:20:33.802Z,29.20
2018-07-26T06:23:02.283Z,29.50
2018-07-26T06:25:30.706Z,29.70
2018-07-26T06:27:58.872Z,29.80
2018-07-26T06:30:33.300Z,29.70
2018-07-26T06:33:04.361Z,29.80
2018-07-26T06:35:32.618Z,29.90
2018-07-26T06:38:01.809Z,30.00
2018-07-26T06:40:34.311Z,30.00
2018-07-26T06:43:15.749Z,30.10
2018-07-26T06:45:50.513Z,30.10
2018-07-26T06:48:18.697Z,30.00
2018-07-26T06:50:53.267Z,30.30
2018-07-26T06:53:24.215Z,30.70
2018-07-26T06:55:55.361Z,30.80
2018-07-26T06:58:23.554Z,30.80
2018-07-26T07:00:56.857Z,30.70
2018-07-26T07:03:34.950Z,30.70
2018-07-26T07:06:03.317Z,30.90
2018-07-26T07:08:31.714Z,31.10
2018-07-26T07:10:59.870Z,31.40
2018-07-26T07:13:32.243Z,31.70
2018-07-26T07:16:12.714Z,31.90
2018-07-26T07:18:43.672Z,32.10
2018-07-26T07:21:17.188Z,32.30
2018-07-26T07:23:45.648Z,32.30
2018-07-26T07:26:13.896Z,32.40
2018-07-26T07:28:42.161Z,32.40
2018-07-26T07:31:18.190Z,32.50
2018-07-26T07:33:51.126Z,32.50
2018-07-26T07:36:24.147Z,32.60
2018-07-26T07:39:02.832Z,32.50
2018-07-26T07:41:33.789Z,32.50
2018-07-26T07:44:02.002Z,32.70
2018-07-26T07:49:15.777Z,32.90
2018-07-26T07:51:53.907Z,33.00
2018-07-26T07:54:27.538Z,33.20
2018-07-26T07:56:58.329Z,33.30
2018-07-26T07:59:26.668Z,33.50
2018-07-26T08:01:58.960Z,33.50
2018-07-26T08:04:37.333Z,33.50
2018-07-26T08:07:11.517Z,33.40
2018-07-26T08:09:41.645Z,33.40
2018-07-26T08:12:09.805Z,33.60
2018-07-26T08:14:45.287Z,33.70
2018-07-26T08:17:19.886Z,33.80
2018-07-26T08:19:55.914Z,34.10
2018-07-26T08:22:27.306Z,34.40
2018-07-26T08:25:08.876Z,34.50
2018-07-26T08:27:43.368Z,34.80
2018-07-26T08:30:14.442Z,34.90
2018-07-26T08:32:44.659Z,35.10
2018-07-26T08:35:12.867Z,35.20
2018-07-26T08:37:45.863Z,35.30
2018-07-26T08:40:13.847Z,35.20
2018-07-26T08:42:54.126Z,35.20
2018-07-26T08:45:28.566Z,35.10
2018-07-26T08:48:01.539Z,34.90
2018-07-26T08:50:29.736Z,34.90
2018-07-26T08:53:00.936Z,34.80
2018-07-26T08:55:40.753Z,35.10
2018-07-26T08:58:08.884Z,34.90
2018-07-26T09:00:41.902Z,34.70
2018-07-26T09:03:10.046Z,34.90
2018-07-26T09:05:48.749Z,35.00
2018-07-26T09:08:17.013Z,34.80
2018-07-26T09:10:49.567Z,34.60
2018-07-26T09:13:17.816Z,34.60
2018-07-26T09:15:54.391Z,34.70
2018-07-26T09:18:25.338Z,34.80
2018-07-26T09:20:55.511Z,34.90
2018-07-26T09:23:24.110Z,34.70
2018-07-26T09:25:52.291Z,34.90
2018-07-26T09:28:23.138Z,35.00
2018-07-26T09:30:51.273Z,35.00
2018-07-26T09:33:22.381Z,35.10
2018-07-26T09:35:55.072Z,35.10
2018-07-26T09:38:32.716Z,34.80
2018-07-26T09:41:01.158Z,34.70
2018-07-26T09:43:33.445Z,34.60
2018-07-26T09:46:08.893Z,34.60
2018-07-26T09:48:40.045Z,34.80
2018-07-26T09:51:19.774Z,34.60
2018-07-26T09:53:54.215Z,34.40
2018-07-26T09:56:36.217Z,34.40
2018-07-26T09:59:15.874Z,34.40
2018-07-26T10:01:46.654Z,34.80
2018-07-26T10:04:14.905Z,35.00
2018-07-26T10:06:48.931Z,35.10
2018-07-26T10:11:57.210Z,34.90
2018-07-26T10:14:28.274Z,34.80
2018-07-26T10:16:56.618Z,34.80
2018-07-26T10:19:24.766Z,34.80
2018-07-26T10:21:59.438Z,34.90
2018-07-26T10:24:27.568Z,35.10
2018-07-26T10:27:07.497Z,35.00
2018-07-26T10:29:35.813Z,35.00
2018-07-26T10:32:04.111Z,34.90
2018-07-26T10:34:35.216Z,35.00
2018-07-26T10:37:06.708Z,35.10
2018-07-26T10:39:47.438Z,35.40
2018-07-26T10:42:22.128Z,35.60
2018-07-26T10:47:26.491Z,35.50
2018-07-26T10:50:04.416Z,35.80
2018-07-26T10:52:32.585Z,36.00
2018-07-26T10:55:05.814Z,36.10
2018-07-26T10:57:44.184Z,36.10
2018-07-26T11:00:24.076Z,36.20
2018-07-26T11:02:55.086Z,36.10
2018-07-26T11:05:23.280Z,36.30
2018-07-26T11:07:51.452Z,36.10
2018-07-26T11:10:26.076Z,36.10
2018-07-26T11:12:54.232Z,36.40
2018-07-26T11:15:28.222Z,36.50
2018-07-26T11:17:56.315Z,36.40
2018-07-26T11:20:33.263Z,36.40
2018-07-26T11:25:35.113Z,36.40
2018-07-26T11:28:03.474Z,36.50
2018-07-26T11:30:31.790Z,36.60
2018-07-26T11:33:00.030Z,36.70
2018-07-26T11:35:31.143Z,36.60
2018-07-26T11:38:01.822Z,36.70
2018-07-26T11:40:35.169Z,36.80
2018-07-26T11:43:08.721Z,36.60
2018-07-26T11:45:41.961Z,36.60
2018-07-26T11:48:12.197Z,36.80
2018-07-26T11:50:40.561Z,36.60
2018-07-26T11:53:11.516Z,36.50
2018-07-26T11:55:53.197Z,36.50
2018-07-26T11:58:25.629Z,36.60
2018-07-26T12:00:56.629Z,36.60
2018-07-26T12:03:25.051Z,36.20
2018-07-26T12:05:53.477Z,36.30
2018-07-26T12:08:21.756Z,36.20
2018-07-26T12:10:54.179Z,36.20
2018-07-26T12:13:31.488Z,36.30
2018-07-26T12:16:02.707Z,36.20
2018-07-26T12:18:47.879Z,36.30
2018-07-26T12:21:16.363Z,36.50
2018-07-26T12:23:47.645Z,36.40
2018-07-26T12:26:15.915Z,36.50
2018-07-26T12:28:46.978Z,36.50
2018-07-26T12:31:19.458Z,36.40
2018-07-26T12:33:50.729Z,36.20
2018-07-26T12:36:19.228Z,36.30
2018-07-26T12:38:49.820Z,36.30
2018-07-26T12:41:20.090Z,36.40
2018-07-26T12:43:49.015Z,36.30
2018-07-26T12:46:32.213Z,36.30
2018-07-26T12:49:12.211Z,36.60
2018-07-26T12:51:40.462Z,36.60
2018-07-26T12:54:14.569Z,36.50
2018-07-26T12:56:45.813Z,36.40
2018-07-26T12:59:14.314Z,36.40
2018-07-26T13:01:42.817Z,36.30
2018-07-26T13:04:11.128Z,36.50
2018-07-26T13:06:39.420Z,36.40
2018-07-26T13:09:09.552Z,36.40
2018-07-26T13:11:43.954Z,36.60
2018-07-26T13:14:14.621Z,36.50
2018-07-26T13:16:47.096Z,36.60
2018-07-26T13:19:22.813Z,36.60
2018-07-26T13:21:51.081Z,36.80
2018-07-26T13:26:47.350Z,36.40
2018-07-26T13:29:15.699Z,36.50
2018-07-26T13:31:49.748Z,36.60
2018-07-26T13:34:25.568Z,36.50
2018-07-26T13:36:56.747Z,36.60
2018-07-26T13:39:30.949Z,36.50
2018-07-26T13:41:59.223Z,36.40
2018-07-26T13:44:27.506Z,36.40
2018-07-26T13:47:07.311Z,36.20
2018-07-26T13:49:35.499Z,36.30
2018-07-26T13:52:06.467Z,36.30
2018-07-26T13:54:38.980Z,36.40
2018-07-26T13:57:09.870Z,36.30
2018-07-26T13:59:42.397Z,36.30
2018-07-26T14:02:10.841Z,36.30
2018-07-26T14:04:43.398Z,36.30
2018-07-26T14:07:11.668Z,36.40
2018-07-26T14:09:46.363Z,36.40
2018-07-26T14:12:14.574Z,36.30
2018-07-26T14:14:49.532Z,36.20
2018-07-26T14:17:17.881Z,36.30
2018-07-26T14:19:46.074Z,36.20
2018-07-26T14:22:20.372Z,36.20
2018-07-26T14:24:58.118Z,36.10
2018-07-26T14:27:26.351Z,35.90
2018-07-26T14:30:03.132Z,35.90
2018-07-26T14:32:31.415Z,35.80
2018-07-26T14:35:03.692Z,35.90
2018-07-26T14:37:35.958Z,35.70
2018-07-26T14:40:11.011Z,35.70
2018-07-26T14:42:39.230Z,35.70
2018-07-26T14:45:20.043Z,35.70
2018-07-26T14:47:48.511Z,35.80
2018-07-26T14:50:17.046Z,35.80
2018-07-26T14:52:45.567Z,35.80
2018-07-26T14:55:15.874Z,35.90
2018-07-26T14:57:44.211Z,36.00
2018-07-26T15:00:12.418Z,36.10
2018-07-26T15:02:46.885Z,36.20
2018-07-26T15:05:20.566Z,36.20
2018-07-26T15:07:51.070Z,36.20
2018-07-26T15:13:04.864Z,36.30
2018-07-26T15:15:37.361Z,36.20
2018-07-26T15:18:06.237Z,36.20
2018-07-26T15:20:36.799Z,36.20
2018-07-26T15:23:07.305Z,36.00
2018-07-26T15:25:45.683Z,36.10
2018-07-26T15:28:21.858Z,36.00
2018-07-26T15:30:50.114Z,35.90
2018-07-26T15:33:22.697Z,35.70
2018-07-26T15:35:51.102Z,35.60
2018-07-26T15:38:22.109Z,35.70
2018-07-26T15:40:53.485Z,35.50
2018-07-26T15:43:23.772Z,35.60
2018-07-26T15:45:51.974Z,35.50
2018-07-26T15:51:01.847Z,35.40
2018-07-26T15:53:34.253Z,35.50
2018-07-26T15:56:10.481Z,35.50
2018-07-26T15:58:51.232Z,35.30
2018-07-26T16:01:19.554Z,35.30
2018-07-26T16:06:27.841Z,35.30
2018-07-26T16:08:56.165Z,35.20
2018-07-26T16:11:24.439Z,35.30
2018-07-26T16:13:58.922Z,35.30
2018-07-26T16:16:31.479Z,35.20
2018-07-26T16:18:59.652Z,35.20
2018-07-26T16:21:32.955Z,35.10
2018-07-26T16:24:06.646Z,35.00
2018-07-26T16:26:41.296Z,35.00
2018-07-26T16:31:43.766Z,34.90
2018-07-26T16:34:17.110Z,34.90
2018-07-26T16:36:49.679Z,35.00
2018-07-26T16:39:22.889Z,34.90
2018-07-26T16:41:51.211Z,34.90
2018-07-26T16:44:19.547Z,34.90
2018-07-26T16:46:51.896Z,34.90
2018-07-26T16:49:22.999Z,34.90
2018-07-26T16:52:01.429Z,34.80
2018-07-26T16:54:34.101Z,34.80
2018-07-26T16:57:08.837Z,34.60
2018-07-26T16:59:40.068Z,34.60
2018-07-26T17:02:14.584Z,34.60
2018-07-26T17:07:11.593Z,34.40
2018-07-26T17:09:47.340Z,34.30
2018-07-26T17:12:15.678Z,34.20
2018-07-26T17:14:48.184Z,34.10
2018-07-26T17:17:16.502Z,33.90
2018-07-26T17:19:49.550Z,33.80
2018-07-26T17:22:29.573Z,33.80
2018-07-26T17:24:57.864Z,33.80
2018-07-26T17:27:32.742Z,33.70
2018-07-26T17:30:06.090Z,33.70
2018-07-26T17:32:34.401Z,33.60
2018-07-26T17:35:05.801Z,33.70
2018-07-26T17:37:38.119Z,33.60
2018-07-26T17:40:13.284Z,33.60
2018-07-26T17:42:55.248Z,33.60
2018-07-26T17:45:23.676Z,33.50
2018-07-26T17:47:51.851Z,33.40
2018-07-26T17:50:24.177Z,33.30
2018-07-26T17:52:55.463Z,33.30
2018-07-26T17:55:35.527Z,33.30
2018-07-26T17:58:03.788Z,33.20
2018-07-26T18:00:38.505Z,33.10
2018-07-26T18:03:06.707Z,33.10
2018-07-26T18:08:14.813Z,33.00
2018-07-26T18:10:42.979Z,32.90
2018-07-26T18:13:17.585Z,32.90
2018-07-26T18:15:54.401Z,32.90
2018-07-26T18:18:22.896Z,32.90
2018-07-26T18:20:51.329Z,32.80
2018-07-26T18:23:19.638Z,32.70
2018-07-26T18:25:47.905Z,32.70
2018-07-26T18:28:22.518Z,32.60
2018-07-26T18:30:56.008Z,32.60
2018-07-26T18:33:24.196Z,32.50
2018-07-26T18:35:57.765Z,32.50
2018-07-26T18:38:30.834Z,32.40
2018-07-26T18:41:02.048Z,32.30
2018-07-26T18:43:30.244Z,32.20
2018-07-26T18:46:04.974Z,32.20
2018-07-26T18:48:33.314Z,32.10
2018-07-26T18:51:04.306Z,32.00
2018-07-26T18:53:42.665Z,31.90
2018-07-26T18:56:23.427Z,31.80
2018-07-26T18:58:54.585Z,31.70
2018-07-26T19:01:26.069Z,31.60
2018-07-26T19:03:57.291Z,31.50
2018-07-26T19:06:25.739Z,31.40
2018-07-26T19:08:54.048Z,31.30
2018-07-26T19:11:22.314Z,31.10
2018-07-26T19:13:53.449Z,31.00
2018-07-26T19:16:23.883Z,30.90
2018-07-26T19:18:54.514Z,30.80
2018-07-26T19:21:34.602Z,30.60
2018-07-26T19:24:03.060Z,30.60
2018-07-26T19:26:31.643Z,30.40
2018-07-26T19:29:00.101Z,30.30
2018-07-26T19:31:28.571Z,30.10
2018-07-26T19:33:56.764Z,30.00
2018-07-26T19:36:31.204Z,29.90
2018-07-26T19:39:02.126Z,29.70
2018-07-26T19:41:32.338Z,29.60
2018-07-26T19:44:00.610Z,29.50
2018-07-26T19:46:40.673Z,29.30
2018-07-26T19:49:13.055Z,29.20
2018-07-26T19:51:53.533Z,29.10
2018-07-26T19:54:27.903Z,28.90
2018-07-26T19:57:06.443Z,28.80
2018-07-26T19:59:44.714Z,28.70
2018-07-26T20:02:20.740Z,28.60
2018-07-26T20:04:49.049Z,28.50
2018-07-26T20:07:31.759Z,28.30
2018-07-26T20:09:59.995Z,28.20
2018-07-26T20:12:28.231Z,28.10
2018-07-26T20:14:59.257Z,28.00
2018-07-26T20:17:27.671Z,27.90
2018-07-26T20:19:56.419Z,27.80
2018-07-26T20:22:27.667Z,27.70
2018-07-26T20:24:55.888Z,27.60
2018-07-26T20:27:28.586Z,27.50
2018-07-26T20:29:56.819Z,27.40
2018-07-26T20:32:34.571Z,27.30
2018-07-26T20:35:02.901Z,27.30
2018-07-26T20:37:31.207Z,27.20
2018-07-26T20:40:05.747Z,27.10
2018-07-26T20:42:34.002Z,27.00
2018-07-26T20:45:07.526Z,26.90
2018-07-26T20:47:42.245Z,26.80
2018-07-26T20:50:10.487Z,26.80
2018-07-26T20:52:45.079Z,26.70
2018-07-26T20:55:19.120Z,26.60
2018-07-26T20:57:50.901Z,26.50
2018-07-26T21:00:23.343Z,26.40
2018-07-26T21:03:00.232Z,26.30
2018-07-26T21:05:30.882Z,26.30
2018-07-26T21:08:04.230Z,26.20
2018-07-26T21:10:32.444Z,26.10
2018-07-26T21:13:00.733Z,26.10
2018-07-26T21:15:38.459Z,26.00
2018-07-26T21:18:06.963Z,26.00
2018-07-26T21:20:38.118Z,25.90
2018-07-26T21:23:10.664Z,25.90
2018-07-26T21:25:38.864Z,25.80
2018-07-26T21:28:13.278Z,25.80
2018-07-26T21:30:44.328Z,25.80
2018-07-26T21:33:12.824Z,25.70
2018-07-26T21:35:41.176Z,25.70
2018-07-26T21:38:09.444Z,25.60
2018-07-26T21:40:51.955Z,25.60
2018-07-26T21:43:20.228Z,25.50
2018-07-26T21:45:51.279Z,25.50
2018-07-26T21:48:20.193Z,25.40
2018-07-26T21:50:57.094Z,25.30
2018-07-26T21:53:26.004Z,25.20
2018-07-26T21:56:02.614Z,25.20
2018-07-26T21:58:37.355Z,25.10
2018-07-26T22:03:42.030Z,25.00
2018-07-26T22:06:16.316Z,24.90
2018-07-26T22:08:47.562Z,24.90
2018-07-26T22:11:18.009Z,24.80
2018-07-26T22:13:51.493Z,24.80
2018-07-26T22:16:22.840Z,24.80
2018-07-26T22:18:58.139Z,24.70
2018-07-26T22:21:26.503Z,24.70
2018-07-26T22:23:54.802Z,24.70
2018-07-26T22:26:25.157Z,24.70
2018-07-26T22:28:59.709Z,24.60
2018-07-26T22:31:30.719Z,24.60
2018-07-26T22:34:04.263Z,24.60
2018-07-26T22:36:36.499Z,24.60
2018-07-26T22:39:10.251Z,24.60
2018-07-26T22:41:41.500Z,24.50
2018-07-26T22:44:11.923Z,24.50
2018-07-26T22:46:42.254Z,24.50
2018-07-26T22:49:10.453Z,24.50
2018-07-26T22:51:42.939Z,24.40
2018-07-26T22:54:15.413Z,24.40
2018-07-26T22:56:43.722Z,24.40
2018-07-26T22:59:18.289Z,24.40
2018-07-26T23:01:50.896Z,24.40
2018-07-26T23:04:19.144Z,24.40
2018-07-26T23:06:52.337Z,24.40
2018-07-26T23:09:30.757Z,24.40
2018-07-26T23:11:59.998Z,24.40
2018-07-26T23:14:28.440Z,24.40
2018-07-26T23:16:59.078Z,24.40
2018-07-26T23:19:29.276Z,24.40
2018-07-26T23:21:57.441Z,24.40
2018-07-26T23:24:28.414Z,24.40
2018-07-26T23:26:56.862Z,24.40
2018-07-26T23:29:25.086Z,24.40
2018-07-26T23:31:57.539Z,24.40
2018-07-26T23:34:33.090Z,24.40
2018-07-26T23:37:01.465Z,24.30
2018-07-26T23:39:33.996Z,24.30
2018-07-26T23:42:02.300Z,24.30
2018-07-26T23:44:35.457Z,24.30
2018-07-26T23:47:09.637Z,24.30
2018-07-26T23:49:37.977Z,24.20
2018-07-26T23:52:06.282Z,24.10
2018-07-26T23:54:39.413Z,24.10
2018-07-26T23:57:11.713Z,24.10
2018-07-26T23:59:41.949Z,24.00
